Odenburg, Louisiana
Current Conditions -  °F | °C
As of 8:15 AM on Tuesday 27 Jan 2015 (Local Time) from KHZR Reporting Station
Clear Clear  
Wind Chill:   Ceiling: Unl
Heat Index:   Visibility: 10mi
Dew Point:   Wind: 0mph
Humidity: 91%   Direction: NA
Pressure: 30.13"   Gusts: NA
Location:  30.9317°N, 91.8606°W
Report Text: KHZR 271415Z AUTO 00000KT 10SM CLR 07/05 A3013 RMK AO2 T00660052
Loading
Personal Weather Stations






























Interactive Weather Map New forecast layout! Learn more

10-Day Weather Forecast

Advertisements
Track Severe Weather on mobile